MSC Ines — 3EFZ3 — position and weather

sailwx.info

Track history (hours):
 
Tides and Currents Weather Stations Pressure Air Temp Water Temp Dewpoint Dewpoint Depression Visibility Wind Speed Wind Dir Waves Ship Positions

MSC Ines

Last reported at 2015-Jul-06 14:20 UTC. Time now 2015-Jul-29 15:58 UTC.
Position N 19°04' W 104°20'.
Warning: this ship's position is 23 days out of date.

Length 349 m; draft 12.4 m.

Type: Ship (hazmat cat A). MMSI: 356112000.

Date/timePositionNaut miles runAvg speedWind from/ knotsBaromVisibWave heightAir tempDewpointWater temp
2015-Jul-06 14:20N 19°04' W 104°20'2 2.6
2015-Jul-06 13:33N 19°05' W 104°18'0 0.1
2015-Jul-06 12:32N 19°05' W 104°18'0 0.0
2015-Jul-06 11:30N 19°05' W 104°18'0 0.0
2015-Jul-06 10:32N 19°05' W 104°18'0 0.0
2015-Jul-05 22:11N 19°05' W 104°18'  
2015-Jul-03 01:21N 29°08' W 120°23'1518.7
2015-Jul-03 00:32N 29°16' W 120°38'1918.8
2015-Jul-02 23:33N 29°25' W 120°56'1918.7
2015-Jul-02 22:32N 29°36' W 121°15'4418.6
2015-Jul-02 20:09N 29°59' W 121°59'1818.6
2015-Jul-02 19:12N 30°08' W 122°16'11218.8
2015-Jul-02 13:14N 31°04' W 124°09'7518.9
2015-Jul-02 09:16N 31°45' W 125°22'  
Track history (hours):
 
Tides and Currents Weather Stations Pressure Air Temp Water Temp Dewpoint Dewpoint Depression Visibility Wind Speed Wind Dir Waves Ship Positions

MSC Ines

Last reported at 2015-Jul-06 14:20 UTC. Time now 2015-Jul-29 15:58 UTC.
Position N 19°04' W 104°20'.
Warning: this ship's position is 23 days out of date.

Length 349 m; draft 12.4 m.

Type: Ship (hazmat cat A). MMSI: 356112000.

Date/timePositionNaut miles runAvg speedWind from/ knotsBaromVisibWave heightAir tempDewpointWater temp
2015-Jul-06 14:20N 19°04' W 104°20'2 2.6
2015-Jul-06 13:33N 19°05' W 104°18'0 0.1
2015-Jul-06 12:32N 19°05' W 104°18'0 0.0
2015-Jul-06 11:30N 19°05' W 104°18'0 0.0
2015-Jul-06 10:32N 19°05' W 104°18'0 0.0
2015-Jul-05 22:11N 19°05' W 104°18'  
2015-Jul-03 01:21N 29°08' W 120°23'1518.7
2015-Jul-03 00:32N 29°16' W 120°38'1918.8
2015-Jul-02 23:33N 29°25' W 120°56'1918.7
2015-Jul-02 22:32N 29°36' W 121°15'4418.6
2015-Jul-02 20:09N 29°59' W 121°59'1818.6
2015-Jul-02 19:12N 30°08' W 122°16'11218.8
2015-Jul-02 13:14N 31°04' W 124°09'7518.9
2015-Jul-02 09:16N 31°45' W 125°22'  

Dump ship's entire track history